WAT5852 CYYZ-KJFK
Flight info
| Callsign | WAT5852 |
|---|---|
| Flight time | N/A |
| Altitude | 33000 |
| Route | KEPTA3 BMPAH DCT AEVON DCT EXTOL Q140 MEMMS PUCKY1 |
| Aircraft | B738/M-SDE2E3FGHIRWXY/LB1 |
Departure
| Time | N/A |
|---|---|
| Airport | Toronto Pearson International Airport (CYYZ) |
Arrival
| Time | 2026-05-08 03:47 |
|---|---|
| Airport | John F. Kennedy International Airport (KJFK) |
| Time | Latitude | Longitude | Altitude | Speed | Heading |
|---|---|---|---|---|---|
| 2026-05-08 03:02 | 42.82083 | -77.40492 | 32956 ft | 535 kts | 108° |
| 2026-05-08 03:02 | 42.81082 | -77.35589 | 32959 ft | 539 kts | 108° |
| 2026-05-08 03:03 | 42.79059 | -77.25685 | 32954 ft | 546 kts | 108° |
| 2026-05-08 03:03 | 42.77013 | -77.15696 | 32941 ft | 549 kts | 109° |
| 2026-05-08 03:04 | 42.74952 | -77.05680 | 32944 ft | 550 kts | 109° |
| 2026-05-08 03:04 | 42.72878 | -76.95653 | 32939 ft | 550 kts | 109° |
| 2026-05-08 03:05 | 42.70798 | -76.85645 | 32916 ft | 550 kts | 109° |
| 2026-05-08 03:05 | 42.68711 | -76.75653 | 32924 ft | 549 kts | 109° |
| 2026-05-08 03:06 | 42.66615 | -76.65686 | 32937 ft | 548 kts | 110° |
| 2026-05-08 03:06 | 42.63566 | -76.56338 | 32896 ft | 537 kts | 127° |
| 2026-05-08 03:07 | 42.59584 | -76.47779 | 32911 ft | 536 kts | 128° |
| 2026-05-08 03:07 | 42.55669 | -76.39245 | 32928 ft | 537 kts | 127° |
| 2026-05-08 03:08 | 42.51761 | -76.30542 | 32934 ft | 536 kts | 127° |
| 2026-05-08 03:08 | 42.47864 | -76.21927 | 32931 ft | 536 kts | 127° |
| 2026-05-08 03:09 | 42.43973 | -76.13376 | 32883 ft | 536 kts | 128° |
| 2026-05-08 03:09 | 42.40068 | -76.04815 | 32903 ft | 534 kts | 128° |
| 2026-05-08 03:10 | 42.36173 | -75.96284 | 32878 ft | 533 kts | 128° |
| 2026-05-08 03:10 | 42.32268 | -75.87763 | 32928 ft | 533 kts | 128° |
| 2026-05-08 03:11 | 42.28349 | -75.79233 | 32933 ft | 535 kts | 128° |
| 2026-05-08 03:11 | 42.24427 | -75.70714 | 32925 ft | 533 kts | 129° |
| 2026-05-08 03:12 | 42.20507 | -75.62208 | 32926 ft | 533 kts | 129° |
| 2026-05-08 03:12 | 42.16592 | -75.53734 | 32923 ft | 532 kts | 129° |
| 2026-05-08 03:13 | 42.12671 | -75.45275 | 32922 ft | 532 kts | 129° |
| 2026-05-08 03:13 | 42.08756 | -75.36846 | 32923 ft | 529 kts | 129° |
| 2026-05-08 03:14 | 42.05731 | -75.27747 | 32934 ft | 549 kts | 104° |
| 2026-05-08 03:14 | 42.04757 | -75.17561 | 32926 ft | 554 kts | 101° |
| 2026-05-08 03:15 | 42.03806 | -75.07265 | 32930 ft | 554 kts | 102° |
| 2026-05-08 03:15 | 42.02759 | -74.97018 | 32933 ft | 553 kts | 103° |
| 2026-05-08 03:16 | 42.01663 | -74.86784 | 32944 ft | 552 kts | 103° |
| 2026-05-08 03:16 | 42.00564 | -74.76569 | 32919 ft | 552 kts | 103° |
| 2026-05-08 03:17 | 41.99464 | -74.66359 | 32920 ft | 551 kts | 103° |
| 2026-05-08 03:17 | 41.98359 | -74.56173 | 32910 ft | 551 kts | 103° |
| 2026-05-08 03:17 | 41.97795 | -74.51106 | 32752 ft | 546 kts | 106° |
| 2026-05-08 03:18 | 41.96730 | -74.46314 | 32241 ft | 525 kts | 123° |
| 2026-05-08 03:18 | 41.94890 | -74.42234 | 31736 ft | 500 kts | 137° |
| 2026-05-08 03:18 | 41.92766 | -74.38587 | 31313 ft | 492 kts | 139° |
| 2026-05-08 03:18 | 41.90641 | -74.35017 | 30785 ft | 488 kts | 139° |
| 2026-05-08 03:19 | 41.88537 | -74.31457 | 30325 ft | 485 kts | 139° |
| 2026-05-08 03:19 | 41.86467 | -74.27903 | 29853 ft | 482 kts | 139° |
| 2026-05-08 03:19 | 41.84429 | -74.24356 | 29278 ft | 479 kts | 139° |
| 2026-05-08 03:19 | 41.82408 | -74.20820 | 28738 ft | 475 kts | 139° |
| 2026-05-08 03:20 | 41.80413 | -74.17325 | 28275 ft | 470 kts | 139° |
| 2026-05-08 03:20 | 41.78460 | -74.13911 | 27804 ft | 465 kts | 139° |
| 2026-05-08 03:20 | 41.76498 | -74.10489 | 27348 ft | 459 kts | 140° |
| 2026-05-08 03:20 | 41.74392 | -74.07424 | 26891 ft | 433 kts | 154° |
| 2026-05-08 03:21 | 41.71934 | -74.05415 | 26523 ft | 399 kts | 171° |
| 2026-05-08 03:21 | 41.69376 | -74.04324 | 26110 ft | 376 kts | 182° |
| 2026-05-08 03:21 | 41.66856 | -74.03969 | 25645 ft | 354 kts | 193° |
| 2026-05-08 03:21 | 41.64460 | -74.04248 | 25243 ft | 342 kts | 198° |
| 2026-05-08 03:22 | 41.62112 | -74.04627 | 24813 ft | 338 kts | 198° |
| 2026-05-08 03:22 | 41.59789 | -74.05012 | 24404 ft | 335 kts | 198° |
| 2026-05-08 03:22 | 41.57487 | -74.05390 | 23983 ft | 332 kts | 198° |
| 2026-05-08 03:22 | 41.55203 | -74.05758 | 23581 ft | 329 kts | 198° |
| 2026-05-08 03:23 | 41.52934 | -74.06117 | 23102 ft | 327 kts | 198° |
| 2026-05-08 03:23 | 41.50687 | -74.06468 | 22683 ft | 324 kts | 198° |
| 2026-05-08 03:23 | 41.48463 | -74.06811 | 22227 ft | 320 kts | 198° |
| 2026-05-08 03:23 | 41.46267 | -74.07150 | 21824 ft | 317 kts | 198° |
| 2026-05-08 03:24 | 41.44080 | -74.07489 | 21436 ft | 315 kts | 197° |
| 2026-05-08 03:24 | 41.41904 | -74.07825 | 21013 ft | 316 kts | 197° |
| 2026-05-08 03:24 | 41.39684 | -74.08173 | 20611 ft | 328 kts | 197° |
| 2026-05-08 03:24 | 41.37386 | -74.08537 | 20179 ft | 334 kts | 197° |
| 2026-05-08 03:25 | 41.35209 | -74.09313 | 19897 ft | 313 kts | 212° |
| 2026-05-08 03:25 | 41.33354 | -74.10657 | 19855 ft | 298 kts | 218° |
| 2026-05-08 03:25 | 41.31594 | -74.12163 | 19830 ft | 306 kts | 219° |
| 2026-05-08 03:25 | 41.29794 | -74.13745 | 19751 ft | 313 kts | 219° |
| 2026-05-08 03:26 | 41.28587 | -74.14803 | 19716 ft | 313 kts | 219° |
| 2026-05-08 03:26 | 41.26769 | -74.16382 | 19686 ft | 312 kts | 219° |
| 2026-05-08 03:26 | 41.24952 | -74.17949 | 19663 ft | 311 kts | 219° |
| 2026-05-08 03:26 | 41.23138 | -74.19505 | 19629 ft | 310 kts | 219° |
| 2026-05-08 03:27 | 41.21335 | -74.21046 | 19547 ft | 305 kts | 219° |
| 2026-05-08 03:27 | 41.19552 | -74.22564 | 19133 ft | 305 kts | 218° |
| 2026-05-08 03:27 | 41.17767 | -74.24084 | 18655 ft | 304 kts | 218° |
| 2026-05-08 03:27 | 41.15993 | -74.25590 | 18416 ft | 298 kts | 218° |
| 2026-05-08 03:28 | 41.14257 | -74.27065 | 18220 ft | 295 kts | 218° |
| 2026-05-08 03:28 | 41.12501 | -74.28563 | 18083 ft | 305 kts | 218° |
| 2026-05-08 03:28 | 41.10702 | -74.30093 | 17871 ft | 310 kts | 218° |
| 2026-05-08 03:28 | 41.08891 | -74.31630 | 17725 ft | 307 kts | 218° |
| 2026-05-08 03:29 | 41.07080 | -74.33129 | 17592 ft | 308 kts | 214° |
| 2026-05-08 03:29 | 41.05002 | -74.34000 | 17464 ft | 322 kts | 195° |
| 2026-05-08 03:29 | 41.02715 | -74.33937 | 17312 ft | 338 kts | 180° |
| 2026-05-08 03:29 | 41.00417 | -74.32994 | 17175 ft | 356 kts | 163° |
| 2026-05-08 03:30 | 40.96501 | -74.28687 | 16917 ft | 374 kts | 144° |
| 2026-05-08 03:30 | 40.92827 | -74.23697 | 16556 ft | 379 kts | 142° |
| 2026-05-08 03:31 | 40.89153 | -74.18741 | 16204 ft | 375 kts | 143° |
| 2026-05-08 03:31 | 40.85476 | -74.13874 | 15850 ft | 373 kts | 143° |
| 2026-05-08 03:32 | 40.83634 | -74.11450 | 15683 ft | 373 kts | 143° |
| 2026-05-08 03:32 | 40.81792 | -74.09032 | 15512 ft | 374 kts | 143° |
| 2026-05-08 03:32 | 40.79973 | -74.06644 | 15351 ft | 374 kts | 142° |
| 2026-05-08 03:32 | 40.78098 | -74.04186 | 15172 ft | 375 kts | 142° |
| 2026-05-08 03:33 | 40.76270 | -74.01792 | 15021 ft | 376 kts | 142° |
| 2026-05-08 03:33 | 40.74452 | -73.99298 | 14827 ft | 380 kts | 137° |
| 2026-05-08 03:33 | 40.72820 | -73.96543 | 14670 ft | 382 kts | 132° |
| 2026-05-08 03:33 | 40.71258 | -73.93710 | 14492 ft | 382 kts | 131° |
| 2026-05-08 03:34 | 40.69682 | -73.90895 | 14322 ft | 381 kts | 132° |
| 2026-05-08 03:34 | 40.68085 | -73.88118 | 14135 ft | 380 kts | 133° |
| 2026-05-08 03:34 | 40.66483 | -73.85359 | 13905 ft | 381 kts | 131° |
| 2026-05-08 03:34 | 40.64949 | -73.82474 | 13392 ft | 386 kts | 128° |
| 2026-05-08 03:35 | 40.63472 | -73.79523 | 12890 ft | 385 kts | 127° |
| 2026-05-08 03:35 | 40.62015 | -73.76585 | 12395 ft | 382 kts | 127° |
| 2026-05-08 03:35 | 40.60560 | -73.73686 | 11954 ft | 378 kts | 127° |
| 2026-05-08 03:35 | 40.59107 | -73.70827 | 11494 ft | 375 kts | 127° |
| 2026-05-08 03:36 | 40.57656 | -73.67989 | 11049 ft | 372 kts | 127° |
| 2026-05-08 03:36 | 40.56383 | -73.65049 | 10570 ft | 369 kts | 110° |
| 2026-05-08 03:36 | 40.56009 | -73.61788 | 10169 ft | 355 kts | 85° |
| 2026-05-08 03:36 | 40.56511 | -73.58721 | 9880 ft | 335 kts | 65° |
| 2026-05-08 03:37 | 40.57604 | -73.56077 | 9367 ft | 323 kts | 50° |
| 2026-05-08 03:37 | 40.59118 | -73.54010 | 8972 ft | 307 kts | 34° |
| 2026-05-08 03:37 | 40.60791 | -73.52375 | 8609 ft | 297 kts | 31° |
| 2026-05-08 03:37 | 40.62477 | -73.50817 | 8267 ft | 296 kts | 31° |
| 2026-05-08 03:38 | 40.64160 | -73.49269 | 7906 ft | 295 kts | 29° |
| 2026-05-08 03:38 | 40.65901 | -73.47938 | 7499 ft | 291 kts | 24° |
| 2026-05-08 03:38 | 40.67663 | -73.46708 | 7204 ft | 280 kts | 24° |
| 2026-05-08 03:38 | 40.69389 | -73.45573 | 6869 ft | 272 kts | 21° |
| 2026-05-08 03:39 | 40.71070 | -73.44533 | 6641 ft | 262 kts | 21° |
| 2026-05-08 03:39 | 40.72698 | -73.43521 | 6432 ft | 257 kts | 21° |
| 2026-05-08 03:39 | 40.74318 | -73.42540 | 6226 ft | 255 kts | 15° |
| 2026-05-08 03:39 | 40.76027 | -73.42341 | 6006 ft | 244 kts | 343° |
| 2026-05-08 03:40 | 40.77520 | -73.43277 | 5717 ft | 235 kts | 319° |
| 2026-05-08 03:40 | 40.78579 | -73.44845 | 5416 ft | 227 kts | 301° |
| 2026-05-08 03:40 | 40.79398 | -73.46598 | 5095 ft | 222 kts | 299° |
| 2026-05-08 03:40 | 40.80182 | -73.48334 | 4783 ft | 219 kts | 299° |
| 2026-05-08 03:41 | 40.80956 | -73.50039 | 4481 ft | 215 kts | 300° |
| 2026-05-08 03:41 | 40.81722 | -73.51716 | 4187 ft | 212 kts | 299° |
| 2026-05-08 03:41 | 40.82168 | -73.53528 | 3928 ft | 209 kts | 268° |
| 2026-05-08 03:41 | 40.81906 | -73.55395 | 3787 ft | 208 kts | 253° |
| 2026-05-08 03:42 | 40.81431 | -73.57216 | 3604 ft | 212 kts | 252° |
| 2026-05-08 03:42 | 40.80932 | -73.59067 | 3425 ft | 216 kts | 252° |
| 2026-05-08 03:42 | 40.80430 | -73.60944 | 3247 ft | 218 kts | 252° |
| 2026-05-08 03:42 | 40.79900 | -73.62824 | 3063 ft | 220 kts | 244° |
| 2026-05-08 03:43 | 40.78857 | -73.64290 | 2825 ft | 221 kts | 213° |
| 2026-05-08 03:43 | 40.77544 | -73.65266 | 2616 ft | 212 kts | 210° |
| 2026-05-08 03:43 | 40.76321 | -73.66225 | 2394 ft | 197 kts | 211° |
| 2026-05-08 03:43 | 40.75181 | -73.67126 | 2210 ft | 186 kts | 211° |
| 2026-05-08 03:44 | 40.74077 | -73.67993 | 2045 ft | 184 kts | 211° |
| 2026-05-08 03:44 | 40.72972 | -73.68860 | 1896 ft | 184 kts | 211° |
| 2026-05-08 03:44 | 40.71921 | -73.69683 | 1731 ft | 172 kts | 211° |
| 2026-05-08 03:44 | 40.70923 | -73.70466 | 1527 ft | 162 kts | 211° |
| 2026-05-08 03:45 | 40.69963 | -73.71219 | 1289 ft | 158 kts | 211° |
| 2026-05-08 03:45 | 40.69026 | -73.71955 | 1063 ft | 156 kts | 211° |
| 2026-05-08 03:45 | 40.68116 | -73.72675 | 891 ft | 153 kts | 210° |
| 2026-05-08 03:45 | 40.67206 | -73.73383 | 694 ft | 152 kts | 210° |
| 2026-05-08 03:46 | 40.66293 | -73.74091 | 473 ft | 153 kts | 210° |
| 2026-05-08 03:46 | 40.65382 | -73.74807 | 282 ft | 152 kts | 212° |
| 2026-05-08 03:46 | 40.64481 | -73.75522 | 72 ft | 150 kts | 211° |
| 2026-05-08 03:46 | 40.63650 | -73.76170 | 21 ft | 116 kts | 210° |
| 2026-05-08 03:47 | 40.63305 | -73.76487 | 22 ft | 27 kts | 236° |
| 2026-05-08 03:47 | 40.63233 | -73.76679 | 19 ft | 13 kts | 273° |
| 2026-05-08 03:47 | 40.63270 | -73.76788 | 19 ft | 13 kts | 301° |
| 2026-05-08 03:47 | 40.63317 | -73.76893 | 19 ft | 18 kts | 301° |
| 2026-05-08 03:48 | 40.63398 | -73.77070 | 19 ft | 24 kts | 301° |
| 2026-05-08 03:48 | 40.63483 | -73.77254 | 20 ft | 23 kts | 301° |
| 2026-05-08 03:48 | 40.63563 | -73.77432 | 20 ft | 22 kts | 302° |
| 2026-05-08 03:48 | 40.63637 | -73.77587 | 19 ft | 13 kts | 305° |
| 2026-05-08 03:49 | 40.63699 | -73.77664 | 19 ft | 13 kts | 358° |
| 2026-05-08 03:49 | 40.63778 | -73.77687 | 19 ft | 13 kts | 321° |
| 2026-05-08 03:49 | 40.63849 | -73.77753 | 19 ft | 12 kts | 324° |
| 2026-05-08 03:49 | 40.63917 | -73.77818 | 20 ft | 12 kts | 324° |
| 2026-05-08 03:50 | 40.63988 | -73.77872 | 21 ft | 12 kts | 335° |
| 2026-05-08 03:50 | 40.64067 | -73.77878 | 19 ft | 11 kts | 356° |
| 2026-05-08 03:50 | 40.64143 | -73.77891 | 19 ft | 11 kts | 3° |
| 2026-05-08 03:50 | 40.64193 | -73.77884 | 19 ft | 0 kts | 9° |